Time;durP1;ratioP1;P1;durP2;ratioP2;P2;SDS_P1;SDS_P2;PMS_P1;PMS_P2;Temp;Humidity;BMP_temperature;BMP_pressure;BME280_temperature;BME280_humidity;BME280_pressure;Samples;Min_cycle;Max_cycle;Signal;HPM_P1;HPM_P2
2023/07/26 00:02:34;;;;;;;3.65;1.73;;;20.10;99.90;;;19.20;80.60;98834.22;10274138;28;98287;-90
2023/07/26 00:07:39;;;;;;;2.33;1.55;;;20.20;99.90;;;19.28;79.67;98857.19;10292197;28;96634;-90
2023/07/26 00:12:42;;;;;;;2.10;1.60;;;20.30;99.90;;;19.30;79.70;98855.03;10274710;28;97619;-88
2023/07/26 00:17:46;;;;;;;4.32;2.10;;;20.30;99.90;;;19.31;80.80;98886.31;10290594;28;97777;-89
2023/07/26 00:22:49;;;;;;;3.05;1.90;;;20.30;99.90;;;19.24;81.73;98888.38;10273782;28;96717;-89
2023/07/26 00:27:53;;;;;;;3.55;1.83;;;20.30;99.90;;;19.15;83.16;98846.84;10272214;28;97443;-88
2023/07/26 00:32:56;;;;;;;3.30;2.03;;;20.20;99.90;;;19.02;86.98;98852.66;10270900;28;99016;-89
2023/07/26 00:38:01;;;;;;;2.95;2.15;;;20.00;99.90;;;18.79;92.28;98849.22;10289825;28;97249;-87
2023/07/26 00:43:05;;;;;;;2.92;2.17;;;19.80;99.90;;;18.53;95.18;98836.50;10291287;28;96677;-88
2023/07/26 00:48:11;;;;;;;4.97;2.25;;;19.50;99.90;;;18.34;97.72;98826.09;10272552;28;96574;-89
2023/07/26 00:53:15;;;;;;;2.78;1.90;;;19.30;99.90;;;18.16;98.38;98808.41;10272016;28;96758;-88
2023/07/26 00:58:18;;;;;;;2.95;1.90;;;19.20;99.90;;;18.09;98.59;98812.34;10272768;28;97067;-87
2023/07/26 01:03:22;;;;;;;2.45;1.70;;;19.10;99.90;;;18.07;99.27;98798.34;10269170;28;97512;-87
2023/07/26 01:08:54;;;;;;;3.78;1.70;;;19.10;99.90;;;18.04;99.19;98788.91;10287733;28;98716;-88
2023/07/26 01:14:26;;;;;;;9.85;2.40;;;19.00;99.90;;;18.02;98.09;98784.84;10275100;28;96610;-87
2023/07/26 01:19:31;;;;;;;2.97;1.83;;;19.10;99.90;;;18.03;96.82;98778.41;10243474;28;98815;-87
2023/07/26 01:24:34;;;;;;;3.13;1.65;;;19.00;99.90;;;18.02;96.02;98779.47;10266934;28;96795;-88
2023/07/26 01:29:38;;;;;;;2.13;1.52;;;19.10;99.90;;;18.01;95.24;98757.16;10257942;28;96627;-88
2023/07/26 01:34:42;;;;;;;2.88;1.83;;;19.10;99.90;;;17.97;96.13;98766.78;10253655;28;96671;-88
2023/07/26 01:39:46;;;;;;;3.28;1.83;;;19.00;99.90;;;17.95;97.83;98752.78;10265550;28;96665;-88
2023/07/26 01:44:49;;;;;;;4.55;2.00;;;19.00;99.90;;;17.96;98.03;98722.16;10270351;28;97668;-87
2023/07/26 01:49:53;;;;;;;3.88;2.03;;;19.00;99.90;;;17.99;98.78;98720.81;10266477;28;96677;-88
2023/07/26 01:54:56;;;;;;;3.78;2.10;;;19.00;99.90;;;18.01;98.55;98721.41;10287324;28;98404;-89
2023/07/26 02:00:00;;;;;;;2.70;1.90;;;19.00;99.90;;;17.98;99.53;98736.16;10287126;28;98879;-90
2023/07/26 02:05:07;;;;;;;4.00;2.08;;;19.00;99.90;;;18.00;99.90;98762.78;10264896;28;98709;-91
2023/07/26 02:10:11;;;;;;;2.70;2.00;;;19.00;99.90;;;18.00;99.56;98760.91;10293569;28;96681;-88
2023/07/26 02:15:14;;;;;;;4.53;2.03;;;19.00;99.90;;;18.05;99.65;98770.91;10284716;28;96590;-90
2023/07/26 02:20:18;;;;;;;3.83;2.70;;;19.00;99.90;;;18.10;100.00;98782.50;10275774;28;96707;-90
2023/07/26 02:25:21;;;;;;;6.90;3.53;;;19.10;99.90;;;18.13;100.00;98787.41;10242198;28;99420;-90
2023/07/26 02:30:25;;;;;;;6.70;4.30;;;19.20;99.90;;;18.11;100.00;98777.94;10247398;28;96693;-87
2023/07/26 02:35:28;;;;;;;5.65;4.47;;;19.10;99.90;;;18.07;100.00;98785.72;10295984;28;96464;-87
2023/07/26 02:40:32;;;;;;;7.55;5.15;;;19.10;99.90;;;18.05;100.00;98795.94;10272521;28;96637;-86
2023/07/26 02:45:36;;;;;;;12.18;5.88;;;19.00;99.90;;;18.01;100.00;98781.34;10290920;28;97505;-86
2023/07/26 02:50:39;;;;;;;6.68;5.68;;;19.00;99.90;;;18.01;100.00;98788.59;10279587;28;96474;-85
2023/07/26 02:55:43;;;;;;;9.27;5.90;;;19.00;99.90;;;17.98;100.00;98799.84;10293478;28;96854;-87
2023/07/26 03:00:55;;;;;;;9.88;6.15;;;19.00;99.90;;;17.98;100.00;98810.59;10276332;28;97161;-87
2023/07/26 03:05:59;;;;;;;7.85;6.20;;;19.00;99.90;;;17.93;100.00;98797.91;10279625;28;96683;-87
2023/07/26 03:11:05;;;;;;;7.55;5.90;;;18.90;99.90;;;17.92;100.00;98780.97;10273987;28;96617;-87
2023/07/26 03:16:09;;;;;;;6.38;5.78;;;18.90;99.90;;;17.90;100.00;98780.41;10297999;28;96554;-86
2023/07/26 03:21:13;;;;;;;11.00;4.97;;;18.90;99.90;;;17.90;100.00;98788.47;10294637;28;97551;-86
2023/07/26 03:26:16;;;;;;;8.43;5.47;;;18.90;99.90;;;17.95;100.00;98779.66;10274721;28;97669;-86
2023/07/26 03:31:20;;;;;;;7.07;4.63;;;19.00;99.90;;;18.04;100.00;98798.84;10261592;28;96603;-86
2023/07/26 03:36:23;;;;;;;4.97;4.13;;;19.10;99.90;;;18.10;100.00;98804.03;10260664;28;96707;-86
2023/07/26 03:41:27;;;;;;;5.55;4.30;;;19.20;99.90;;;18.23;100.00;98808.19;10277218;28;96657;-86
2023/07/26 03:46:31;;;;;;;6.28;3.88;;;19.30;99.90;;;18.33;100.00;98805.63;10294192;28;96976;-86
2023/07/26 03:51:35;;;;;;;6.13;4.55;;;19.40;99.90;;;18.39;100.00;98823.44;10293306;28;96793;-85
2023/07/26 03:56:38;;;;;;;5.57;4.13;;;19.40;99.90;;;18.35;100.00;98841.19;10291792;28;97383;-86
2023/07/26 04:01:42;;;;;;;6.07;4.30;;;19.40;99.90;;;18.35;100.00;98853.78;10270183;28;96895;-86
2023/07/26 04:06:45;;;;;;;5.70;4.18;;;19.40;99.90;;;18.32;100.00;98857.81;10292011;28;97480;-86
2023/07/26 04:11:55;;;;;;;4.82;4.03;;;19.40;99.90;;;18.28;100.00;98853.97;10276662;28;97393;-89
2023/07/26 04:16:58;;;;;;;5.57;4.40;;;19.30;99.90;;;18.26;99.82;98847.25;10250745;28;96643;-86
2023/07/26 04:22:02;;;;;;;3.80;3.35;;;19.30;99.90;;;18.30;99.01;98886.03;10233977;28;96591;-87
2023/07/26 04:27:06;;;;;;;5.07;3.75;;;19.30;99.90;;;18.31;98.43;98888.44;10290434;28;97626;-87
2023/07/26 04:32:10;;;;;;;5.78;3.97;;;19.30;99.90;;;18.32;97.52;98891.94;10270827;28;98361;-87
2023/07/26 04:37:14;;;;;;;7.20;3.90;;;19.30;99.90;;;18.27;96.17;98887.31;10291911;28;96771;-87
2023/07/26 04:42:18;;;;;;;3.42;2.88;;;19.30;99.90;;;18.15;93.78;98865.13;10290423;28;97006;-88
2023/07/26 04:47:24;;;;;;;6.13;2.42;;;19.20;99.90;;;18.07;91.45;98857.50;10275010;28;96954;-85
2023/07/26 04:52:28;;;;;;;3.13;2.10;;;19.10;99.90;;;18.03;90.32;98869.78;10288665;28;96836;-86
2023/07/26 04:57:31;;;;;;;4.72;1.90;;;19.00;99.90;;;17.98;89.38;98862.47;10287302;28;98166;-86
2023/07/26 05:02:36;;;;;;;2.60;1.70;;;19.00;99.90;;;17.96;88.91;98877.22;10266254;28;96931;-86
2023/07/26 05:07:39;;;;;;;2.35;1.15;;;19.00;99.90;;;18.00;88.48;98881.06;10289350;28;97640;-89
2023/07/26 05:12:43;;;;;;;2.47;1.50;;;19.00;99.90;;;18.01;85.61;98874.63;10270013;28;96531;-88
2023/07/26 05:17:46;;;;;;;3.10;1.40;;;19.00;99.90;;;18.04;85.11;98882.16;10269172;28;98482;-91
2023/07/26 05:22:50;;;;;;;2.08;1.10;;;19.10;99.90;;;18.08;84.31;98886.00;10270405;28;96694;-89
2023/07/26 05:27:55;;;;;;;3.15;1.10;;;19.10;99.90;;;18.12;84.62;98897.88;10275175;28;96659;-89
2023/07/26 05:32:58;;;;;;;3.50;1.15;;;19.20;99.90;;;18.13;84.25;98902.19;10290497;28;96582;-90
2023/07/26 05:38:02;;;;;;;2.13;1.25;;;19.20;99.90;;;18.11;83.78;98894.38;10270815;28;96798;-90
2023/07/26 05:43:06;;;;;;;1.85;1.10;;;19.20;99.90;;;18.12;83.04;98890.63;10270787;28;96766;-90
2023/07/26 05:48:09;;;;;;;8.27;1.40;;;19.20;99.90;;;18.11;82.07;98901.59;10274319;28;96459;-91
2023/07/26 05:53:13;;;;;;;4.18;1.30;;;19.20;99.90;;;18.16;83.54;98890.94;10291266;28;96576;-91
2023/07/26 05:58:17;;;;;;;2.25;1.27;;;19.20;99.90;;;18.23;82.66;98921.13;10273911;28;97379;-94
2023/07/26 06:03:21;;;;;;;1.90;1.10;;;19.30;99.90;;;18.32;83.90;98918.84;10274089;28;96599;-93
2023/07/26 06:08:24;;;;;;;2.55;1.40;;;19.40;99.90;;;18.37;82.19;98910.84;10278699;28;97889;-88
2023/07/26 06:13:28;;;;;;;3.05;1.63;;;19.50;99.90;;;18.38;82.30;98926.72;10288603;28;97425;-90
2023/07/26 06:18:32;;;;;;;2.70;1.45;;;19.50;99.90;;;18.30;81.54;98932.53;10263746;28;97728;-89
2023/07/26 06:23:35;;;;;;;1.85;1.05;;;19.40;99.90;;;18.28;82.34;98940.03;10269814;28;97015;-88
2023/07/26 06:28:39;;;;;;;1.88;1.27;;;19.40;99.90;;;18.24;81.75;98959.63;10289936;28;96587;-89
2023/07/26 06:33:42;;;;;;;2.15;1.40;;;19.30;99.90;;;18.17;82.24;98940.94;10287511;28;97906;-89
2023/07/26 06:38:45;;;;;;;2.22;1.30;;;19.20;99.90;;;18.09;83.13;98931.44;10289961;28;96646;-88
2023/07/26 06:43:50;;;;;;;1.60;1.10;;;19.20;99.90;;;18.03;82.87;98945.06;10254566;28;96679;-90
2023/07/26 06:48:54;;;;;;;1.48;1.13;;;19.10;99.90;;;18.01;83.74;98939.13;10278295;28;96744;-90
2023/07/26 06:53:58;;;;;;;2.33;1.00;;;19.00;99.90;;;18.01;84.60;98945.31;10276938;28;98421;-88
2023/07/26 06:59:04;;;;;;;1.63;1.17;;;19.00;99.90;;;17.99;83.95;98958.16;10286382;28;98032;-88
2023/07/26 07:04:08;;;;;;;2.55;1.35;;;19.00;99.90;;;17.99;84.77;98973.47;10276093;28;97668;-93
2023/07/26 07:09:17;;;;;;;3.50;1.40;;;19.00;99.90;;;18.01;85.44;98988.31;10239269;28;96512;-93
2023/07/26 07:14:21;;;;;;;2.53;1.73;;;19.00;99.90;;;18.10;86.75;98999.47;10265944;28;96595;-90
2023/07/26 07:19:25;;;;;;;2.60;1.52;;;19.10;99.90;;;18.11;87.90;98999.22;10268671;28;97221;-90
2023/07/26 07:24:28;;;;;;;2.25;1.52;;;19.20;99.90;;;18.06;88.99;98999.16;10262629;28;96527;-94
2023/07/26 07:29:33;;;;;;;2.30;1.00;;;19.10;99.90;;;18.04;89.11;99016.56;10284228;28;96473;-89
2023/07/26 07:34:36;;;;;;;2.80;1.08;;;19.10;99.90;;;17.89;89.93;99004.53;10269913;28;97940;-92
2023/07/26 07:39:40;;;;;;;2.88;1.52;;;19.00;99.90;;;17.79;89.80;99008.91;10275322;28;98409;-91
2023/07/26 07:44:43;;;;;;;4.72;1.30;;;18.90;99.90;;;17.69;89.79;99028.31;10293180;28;96553;-93
2023/07/26 07:49:47;;;;;;;2.55;1.30;;;18.80;99.90;;;17.59;90.00;99030.84;10276070;28;97033;-92
2023/07/26 07:54:50;;;;;;;2.13;1.25;;;18.70;99.90;;;17.49;89.95;99044.09;10259417;28;97312;-90
2023/07/26 07:59:54;;;;;;;1.52;1.15;;;18.60;99.90;;;17.37;90.59;99044.94;10259693;28;96633;-90
2023/07/26 08:05:00;;;;;;;3.00;1.23;;;18.50;99.90;;;17.25;91.40;99046.88;10274245;28;96839;-89
2023/07/26 08:10:04;;;;;;;2.35;1.20;;;18.40;99.90;;;17.20;91.76;99056.69;10273087;28;96626;-92
2023/07/26 08:15:08;;;;;;;5.68;1.80;;;18.30;99.90;;;17.13;91.92;99064.88;10276376;28;96519;-88
2023/07/26 08:20:12;;;;;;;2.22;1.52;;;18.20;99.90;;;17.11;92.17;99057.06;10268847;28;96496;-84
2023/07/26 08:25:16;;;;;;;3.35;1.50;;;18.20;99.90;;;17.12;93.56;99061.38;10260315;28;96485;-85
2023/07/26 08:30:19;;;;;;;3.30;1.70;;;18.20;99.90;;;17.10;95.71;99055.44;10293324;28;96942;-85
2023/07/26 08:35:24;;;;;;;2.80;1.63;;;18.20;99.90;;;17.16;97.20;99074.34;10273680;28;97042;-86
2023/07/26 08:40:27;;;;;;;2.40;1.73;;;18.20;99.90;;;17.21;96.95;99074.44;10292184;28;96630;-84
2023/07/26 08:45:32;;;;;;;2.65;1.70;;;18.30;99.90;;;17.25;95.47;99076.41;10293596;28;96722;-86
2023/07/26 08:50:39;;;;;;;3.83;1.80;;;18.30;99.90;;;17.27;93.08;99084.22;10273014;28;98534;-85
2023/07/26 08:55:43;;;;;;;2.55;1.63;;;18.30;99.90;;;17.30;92.27;99089.94;10259041;28;97316;-85
2023/07/26 09:00:47;;;;;;;2.78;1.48;;;18.30;99.90;;;17.35;92.93;99098.09;10273960;28;97415;-84
2023/07/26 09:06:08;;;;;;;2.40;1.50;;;18.40;99.90;;;17.39;91.51;99109.16;10292007;28;96649;-90
2023/07/26 09:11:26;;;;;;;2.28;1.50;;;18.40;99.90;;;17.36;90.56;99113.16;10270957;28;97754;-92
2023/07/26 09:16:32;;;;;;;2.47;1.45;;;18.40;99.90;;;17.38;90.27;99127.13;10289111;28;96722;-91
2023/07/26 09:21:37;;;;;;;4.13;1.40;;;18.40;99.90;;;17.38;89.48;99131.69;10274356;28;96612;-92
2023/07/26 09:26:42;;;;;;;2.22;1.45;;;18.40;99.90;;;17.39;89.33;99134.16;10272634;28;96706;-92
2023/07/26 09:31:46;;;;;;;2.88;1.50;;;18.50;99.90;;;17.42;90.07;99129.38;10245197;28;96739;-90
2023/07/26 09:36:51;;;;;;;1.95;1.10;;;18.50;99.90;;;17.42;90.59;99118.63;10257908;28;96596;-91
2023/07/26 09:42:07;;;;;;;2.22;1.30;;;18.50;99.90;;;17.53;92.05;99120.44;10273331;28;96728;-94
2023/07/26 09:47:11;;;;;;;4.20;1.60;;;18.60;99.90;;;17.62;91.15;99122.50;10274153;28;96599;-94
2023/07/26 09:52:19;;;;;;;2.00;1.50;;;18.70;99.90;;;17.74;90.89;99111.75;10256631;28;96501;-93
2023/07/26 09:57:23;;;;;;;2.00;1.50;;;18.80;99.90;;;18.00;92.10;99117.59;10272150;28;98160;-91
2023/07/26 10:02:28;;;;;;;1.55;1.15;;;19.00;99.90;;;18.31;89.81;99118.91;10271105;28;96666;-88
2023/07/26 10:07:34;;;;;;;2.80;1.27;;;19.40;99.90;;;18.56;87.24;99115.81;10274223;28;96516;-87
2023/07/26 10:12:42;;;;;;;3.22;1.50;;;19.60;99.90;;;18.62;83.67;99117.50;10287796;28;96796;-88
2023/07/26 10:17:47;;;;;;;2.38;1.40;;;19.70;99.90;;;18.63;83.57;99130.69;10273249;28;97740;-86
2023/07/26 10:22:54;;;;;;;2.90;1.48;;;19.70;99.90;;;18.61;83.19;99124.75;10277714;28;97158;-89
2023/07/26 10:27:58;;;;;;;3.33;1.50;;;19.70;99.90;;;18.62;82.96;99139.03;10292308;28;98623;-89
2023/07/26 10:33:02;;;;;;;2.65;1.30;;;19.70;99.90;;;18.65;82.27;99143.91;10295358;28;96642;-87
2023/07/26 10:38:06;;;;;;;2.17;1.30;;;19.70;99.90;;;18.72;82.66;99150.00;10273258;28;97280;-90
2023/07/26 10:43:22;;;;;;;4.10;1.70;;;19.80;99.90;;;18.69;81.90;99140.50;10278990;28;96645;-89
2023/07/26 10:48:27;;;;;;;3.28;1.73;;;19.70;99.90;;;18.59;81.25;99139.50;10292002;28;96600;-88
2023/07/26 10:53:37;;;;;;;3.47;1.90;;;19.70;99.90;;;18.53;81.64;99145.88;10272186;28;98223;-84
2023/07/26 10:58:54;;;;;;;2.75;1.92;;;19.60;99.90;;;18.41;80.48;99149.47;10291635;28;97597;-85
2023/07/26 11:03:59;;;;;;;2.20;2.00;;;19.50;99.90;;;18.39;80.82;99161.53;10293032;28;96605;-87
2023/07/26 11:09:04;;;;;;;2.17;1.90;;;19.50;99.90;;;18.41;79.49;99162.09;10293841;28;96511;-86
2023/07/26 11:14:16;;;;;;;2.85;1.60;;;19.50;99.90;;;18.51;81.69;99142.63;10257433;28;97017;-85
2023/07/26 11:19:20;;;;;;;2.63;1.80;;;19.60;99.90;;;18.52;79.73;99150.44;10278856;28;96586;-87
2023/07/26 11:24:28;;;;;;;2.15;1.40;;;19.60;99.90;;;18.49;79.59;99147.44;10296202;28;96394;-84
2023/07/26 11:29:33;;;;;;;3.13;1.60;;;19.50;99.90;;;18.51;79.70;99166.81;10275829;28;97575;-83
2023/07/26 11:34:36;;;;;;;2.38;1.75;;;19.60;99.90;;;18.52;79.56;99169.25;10292482;28;96619;-84
2023/07/26 11:39:40;;;;;;;3.40;1.48;;;19.60;99.90;;;18.52;79.34;99147.75;10271327;28;96668;-84
2023/07/26 11:44:43;;;;;;;3.72;1.50;;;19.60;99.90;;;18.49;78.94;99156.31;10294097;28;96595;-84
2023/07/26 11:49:47;;;;;;;1.70;1.40;;;19.60;99.90;;;18.48;79.52;99149.31;10293471;28;97772;-83
2023/07/26 11:55:05;;;;;;;2.30;1.23;;;19.60;99.90;;;18.58;79.09;99159.41;10293199;28;97004;-84
2023/07/26 12:00:09;;;;;;;1.85;1.45;;;19.60;99.90;;;18.69;77.73;99155.84;10287132;28;96947;-85
2023/07/26 12:05:25;;;;;;;2.03;1.20;;;19.70;99.90;;;18.81;77.83;99153.06;10258727;28;96688;-87
2023/07/26 12:10:34;;;;;;;2.28;1.30;;;19.90;99.90;;;19.07;77.33;99151.53;10274613;28;96634;-86
2023/07/26 12:16:10;;;;;;;1.25;1.00;;;20.10;99.90;;;19.26;75.78;99169.06;10267804;28;98273;-87
2023/07/26 12:21:14;;;;;;;1.30;0.88;;;20.30;99.30;;;19.55;74.57;99168.84;10223165;28;98877;-89
2023/07/26 12:26:24;;;;;;;2.08;0.80;;;20.60;99.10;;;19.94;73.13;99156.94;10288151;28;96937;-92
2023/07/26 12:31:36;;;;;;;3.70;0.70;;;21.10;98.30;;;20.45;71.22;99159.25;10244283;28;97554;-92
2023/07/26 12:36:44;;;;;;;1.92;0.50;;;21.70;97.60;;;20.89;68.99;99162.59;10269131;28;96620;-90
2023/07/26 12:41:47;;;;;;;2.25;0.50;;;22.10;96.70;;;20.94;65.31;99159.13;10285125;28;99950;-87
2023/07/26 12:46:52;;;;;;;0.50;0.40;;;22.20;95.20;;;20.60;65.94;99175.63;10270651;28;96668;-85
2023/07/26 12:52:15;;;;;;;2.25;0.47;;;21.90;94.90;;;20.24;68.66;99172.59;10278886;28;98531;-88
2023/07/26 12:57:19;;;;;;;1.10;0.50;;;21.40;95.60;;;19.97;68.57;99180.69;10265528;28;97757;-87
2023/07/26 13:02:22;;;;;;;1.17;0.40;;;21.10;95.70;;;19.84;69.56;99189.16;10285027;28;97558;-87
2023/07/26 13:07:26;;;;;;;0.32;0.30;;;21.00;96.00;;;19.67;70.16;99188.44;10276096;28;97247;-88
2023/07/26 13:12:30;;;;;;;0.57;0.30;;;20.80;96.30;;;19.59;70.54;99200.47;10289506;28;96714;-87
2023/07/26 13:17:33;;;;;;;0.30;0.30;;;20.70;96.50;;;19.48;71.16;99199.50;10258080;28;97770;-88
2023/07/26 13:22:37;;;;;;;0.60;0.30;;;20.60;96.60;;;19.32;72.13;99211.16;10270596;28;96857;-89
2023/07/26 13:27:42;;;;;;;0.35;0.20;;;20.40;97.00;;;19.26;72.51;99217.53;10286230;28;96790;-89
2023/07/26 13:32:45;;;;;;;0.30;0.20;;;20.30;97.00;;;19.24;72.60;99217.75;10257635;28;96590;-91
2023/07/26 13:37:49;;;;;;;1.85;0.55;;;20.30;97.20;;;19.29;72.24;99214.31;10291297;28;96496;-90
2023/07/26 13:42:54;;;;;;;0.98;0.20;;;20.30;97.10;;;19.31;70.96;99217.59;10285994;28;96679;-90
2023/07/26 13:47:57;;;;;;;0.22;0.10;;;20.40;96.70;;;19.59;70.04;99211.25;10258259;28;96981;-87
2023/07/26 13:53:01;;;;;;;0.00;0.00;;;20.60;96.50;;;19.83;66.61;99214.50;10257669;28;96595;-87
2023/07/26 13:58:04;;;;;;;0.10;0.10;;;20.80;95.40;;;20.00;64.23;99217.13;10281186;28;99002;-88
2023/07/26 14:03:08;;;;;;;1.42;0.00;;;21.00;94.30;;;20.40;62.78;99213.22;10299894;28;96633;-89
2023/07/26 14:08:13;;;;;;;0.10;0.10;;;21.40;93.70;;;20.74;60.79;99227.28;10280732;28;96558;-89
2023/07/26 14:13:18;;;;;;;0.08;0.00;;;21.80;92.60;;;20.83;59.27;99223.84;10278819;28;96606;-88
2023/07/26 14:18:21;;;;;;;0.43;0.10;;;21.90;91.70;;;21.10;56.86;99222.94;10279612;28;96796;-87
2023/07/26 14:23:25;;;;;;;0.13;0.03;;;22.20;90.70;;;21.38;56.13;99216.41;10283817;28;99928;-89
2023/07/26 14:28:29;;;;;;;0.40;0.13;;;22.50;89.70;;;21.87;53.59;99230.41;10290583;28;98302;-86
2023/07/26 14:33:33;;;;;;;0.47;0.00;;;23.00;87.60;;;22.23;52.75;99224.31;10273338;28;98910;-91
2023/07/26 14:38:37;;;;;;;0.43;0.10;;;23.50;85.20;;;22.05;50.63;99223.69;10250928;28;97496;-89
2023/07/26 14:43:40;;;;;;;0.75;0.08;;;23.50;81.80;;;21.55;52.69;99229.75;10271709;28;97956;-89
2023/07/26 14:48:44;;;;;;;0.22;0.10;;;22.90;82.50;;;21.24;54.70;99236.84;10271572;28;99049;-86
2023/07/26 14:53:48;;;;;;;0.05;0.05;;;22.60;83.90;;;21.58;55.06;99240.81;10286808;28;98949;-86
2023/07/26 14:58:52;;;;;;;0.40;0.20;;;23.10;84.60;;;22.14;53.91;99253.78;10290301;28;96767;-87
2023/07/26 15:03:59;;;;;;;0.38;0.10;;;23.90;83.20;;;22.87;51.36;99257.16;10273523;28;96761;-90
2023/07/26 15:09:03;;;;;;;0.63;0.10;;;24.70;81.10;;;23.21;48.37;99262.00;10268276;28;96587;-85
2023/07/26 15:14:08;;;;;;;0.30;0.10;;;25.00;76.40;;;23.40;49.13;99268.47;10296195;28;96991;-87
2023/07/26 15:19:12;;;;;;;0.08;0.03;;;25.10;75.80;;;23.48;48.24;99275.22;10252044;28;98928;-86
2023/07/26 15:24:15;;;;;;;0.30;0.10;;;25.10;75.20;;;23.54;47.54;99287.69;10265790;28;96547;-86
2023/07/26 15:29:19;;;;;;;0.30;0.10;;;25.10;74.20;;;23.71;47.36;99292.84;10273474;28;96684;-90
2023/07/26 15:34:22;;;;;;;0.57;0.10;;;25.20;74.20;;;23.63;48.18;99299.66;10275669;28;98286;-91
2023/07/26 15:39:26;;;;;;;0.28;0.10;;;25.10;74.00;;;23.64;48.23;99309.41;10269855;28;97567;-92
2023/07/26 15:44:29;;;;;;;0.00;0.00;;;25.10;74.00;;;23.67;47.84;99314.25;10272455;28;98157;-91
2023/07/26 15:49:36;;;;;;;0.15;0.10;;;25.10;73.20;;;23.69;48.77;99328.38;10271093;28;97407;-90
2023/07/26 15:54:40;;;;;;;0.22;0.10;;;25.10;74.00;;;23.82;47.18;99331.59;10265351;28;96685;-86
2023/07/26 15:59:44;;;;;;;0.17;0.10;;;25.10;72.50;;;23.58;46.56;99334.88;10288293;28;96567;-84
2023/07/26 16:04:48;;;;;;;0.00;0.00;;;25.00;71.70;;;23.53;47.68;99343.00;10238177;28;97157;-86
2023/07/26 16:09:54;;;;;;;0.40;0.10;;;24.80;72.40;;;23.33;46.09;99334.88;10277939;28;97016;-87
2023/07/26 16:14:58;;;;;;;0.03;0.03;;;24.50;70.90;;;23.20;47.24;99342.47;10287414;28;96692;-87
2023/07/26 16:20:05;;;;;;;0.80;0.20;;;24.40;71.20;;;22.89;47.25;99346.28;10267548;28;97097;-86
2023/07/26 16:25:10;;;;;;;0.57;0.00;;;24.10;71.30;;;22.60;48.51;99348.63;10282003;28;98544;-86
2023/07/26 16:30:13;;;;;;;0.73;0.10;;;23.70;72.50;;;22.24;47.77;99355.81;10290224;28;97521;-85
2023/07/26 16:35:17;;;;;;;0.30;0.10;;;23.40;72.20;;;21.92;49.55;99362.13;10270439;28;96613;-86
2023/07/26 16:40:21;;;;;;;1.85;0.10;;;23.10;73.10;;;21.71;49.52;99368.50;10291548;28;96501;-86
2023/07/26 16:45:24;;;;;;;0.10;0.05;;;22.90;73.40;;;21.55;49.68;99381.94;10288590;28;96665;-87
2023/07/26 16:50:28;;;;;;;0.65;0.10;;;22.70;73.60;;;21.31;49.51;99384.19;10290960;28;96415;-86
2023/07/26 16:55:31;;;;;;;0.25;0.10;;;22.50;73.50;;;20.97;48.97;99391.66;10273672;28;98041;-88
2023/07/26 17:00:35;;;;;;;0.73;0.10;;;22.10;72.70;;;20.51;50.46;99404.69;10256510;28;97030;-86
2023/07/26 17:05:38;;;;;;;1.80;0.10;;;21.60;73.60;;;20.12;51.56;99422.78;10289123;28;96665;-86
2023/07/26 17:10:42;;;;;;;0.10;0.10;;;21.20;74.60;;;19.66;52.01;99414.00;10251222;28;1466153;-85
2023/07/26 17:15:45;;;;;;;0.63;0.20;;;20.80;75.40;;;19.32;52.81;99413.19;10275485;28;96778;-84
2023/07/26 17:20:50;;;;;;;0.28;0.10;;;20.40;76.00;;;19.05;54.01;99425.63;10252758;28;96586;-87
2023/07/26 17:25:55;;;;;;;0.20;0.15;;;20.10;77.10;;;18.86;55.01;99422.31;10254680;28;96914;-87
2023/07/26 17:30:59;;;;;;;0.30;0.10;;;19.90;77.80;;;18.60;55.13;99429.88;10290305;28;96567;-86
2023/07/26 17:36:11;;;;;;;0.30;0.20;;;19.70;78.10;;;18.41;56.26;99433.75;10289181;28;99231;-84
2023/07/26 17:41:16;;;;;;;0.10;0.10;;;19.50;78.90;;;18.28;56.84;99439.41;10273917;28;96690;-86
2023/07/26 17:46:21;;;;;;;3.45;0.38;;;19.40;79.60;;;18.16;57.88;99444.78;10270413;28;98659;-86
2023/07/26 17:51:27;;;;;;;0.32;0.20;;;19.30;80.30;;;18.05;58.12;99453.69;10273143;28;96622;-86
2023/07/26 17:56:31;;;;;;;0.25;0.10;;;19.20;80.60;;;17.97;58.53;99454.06;10260801;28;97336;-88
2023/07/26 18:01:37;;;;;;;0.20;0.20;;;19.10;81.10;;;17.86;58.62;99467.25;10284661;28;98611;-87
2023/07/26 18:06:40;;;;;;;1.70;0.30;;;19.00;81.20;;;17.77;58.91;99479.41;10272446;28;96529;-86
2023/07/26 18:11:44;;;;;;;0.30;0.22;;;18.90;81.40;;;17.67;59.54;99485.31;10274688;28;96392;-86
2023/07/26 18:16:48;;;;;;;0.75;0.47;;;18.80;82.00;;;17.57;60.91;99489.59;10288380;28;96589;-86
2023/07/26 18:21:54;;;;;;;0.55;0.30;;;18.70;82.90;;;17.43;61.40;99501.59;10288509;28;96610;-88
2023/07/26 18:26:58;;;;;;;0.57;0.30;;;18.50;83.70;;;17.31;62.29;99506.94;10287160;28;96598;-87
2023/07/26 18:32:03;;;;;;;1.00;0.38;;;18.40;84.50;;;17.14;63.00;99522.88;10289788;28;96647;-87
2023/07/26 18:37:06;;;;;;;1.17;0.30;;;18.30;85.30;;;17.06;63.13;99523.19;10263813;28;98501;-87
2023/07/26 18:42:10;;;;;;;0.85;0.38;;;18.20;85.80;;;16.99;64.15;99539.38;10288457;28;99205;-87
2023/07/26 18:47:13;;;;;;;0.30;0.22;;;18.10;86.20;;;16.84;65.16;99563.06;10273339;28;97122;-87
2023/07/26 18:52:17;;;;;;;1.00;0.20;;;18.00;87.00;;;16.70;65.93;99578.50;10276052;28;97445;-86
2023/07/26 18:57:21;;;;;;;1.85;0.43;;;17.80;87.80;;;16.55;66.40;99594.94;10291256;28;97768;-86
2023/07/26 19:02:24;;;;;;;0.57;0.30;;;17.70;88.60;;;16.50;66.84;99599.34;10271925;28;97618;-86
2023/07/26 19:07:28;;;;;;;0.40;0.35;;;17.60;89.10;;;16.44;67.48;99600.22;10251641;28;97532;-86
2023/07/26 19:12:32;;;;;;;0.68;0.40;;;17.60;89.60;;;16.32;67.95;99592.88;10282931;28;98867;-86
2023/07/26 19:17:36;;;;;;;0.32;0.20;;;17.50;90.10;;;16.25;68.64;99604.69;10284664;28;98508;-87
2023/07/26 19:22:40;;;;;;;0.68;0.50;;;17.40;90.40;;;16.18;69.53;99599.38;10266418;28;97601;-86
2023/07/26 19:27:43;;;;;;;0.73;0.50;;;17.30;90.60;;;16.08;69.78;99612.47;10290906;28;96599;-86
2023/07/26 19:32:47;;;;;;;1.17;0.30;;;17.20;90.80;;;15.99;70.39;99625.31;10292080;28;96481;-87
2023/07/26 19:37:51;;;;;;;1.58;0.70;;;17.10;91.10;;;15.89;70.97;99637.53;10291594;28;96654;-87
2023/07/26 19:42:55;;;;;;;1.05;0.50;;;17.00;91.40;;;15.76;70.79;99630.41;10283133;28;97319;-88
2023/07/26 19:47:58;;;;;;;0.47;0.38;;;16.90;91.60;;;15.67;70.85;99642.41;10278379;28;98626;-87
2023/07/26 19:53:02;;;;;;;0.65;0.52;;;16.80;91.70;;;15.57;70.79;99637.47;10305462;28;96727;-86
2023/07/26 19:58:06;;;;;;;2.78;0.98;;;16.70;91.70;;;15.44;71.42;99648.25;10310615;28;97878;-87
2023/07/26 20:03:10;;;;;;;1.05;0.40;;;16.60;91.90;;;15.34;72.14;99648.69;10300126;28;96671;-87
2023/07/26 20:08:14;;;;;;;0.70;0.50;;;16.50;92.20;;;15.23;72.12;99634.16;10265084;28;97133;-87
2023/07/26 20:13:19;;;;;;;2.20;0.52;;;16.40;92.30;;;15.22;72.46;99640.50;10228779;28;98727;-87
2023/07/26 20:18:22;;;;;;;1.08;0.55;;;16.40;92.50;;;15.21;72.73;99644.22;10250653;28;96502;-87
2023/07/26 20:23:26;;;;;;;1.10;0.50;;;16.30;92.50;;;15.16;72.70;99636.00;10276090;28;96564;-87
2023/07/26 20:28:29;;;;;;;0.98;0.52;;;16.30;92.70;;;15.14;73.16;99646.09;10282395;28;96586;-87
2023/07/26 20:33:33;;;;;;;1.48;0.73;;;16.30;92.80;;;15.09;73.57;99645.91;10282347;28;98656;-90
2023/07/26 20:38:37;;;;;;;2.25;0.70;;;16.20;93.00;;;15.04;73.96;99659.09;10290301;28;98065;-86
2023/07/26 20:43:40;;;;;;;1.27;0.70;;;16.20;93.20;;;14.99;74.47;99666.91;10271866;28;98557;-91
2023/07/26 20:48:44;;;;;;;1.63;0.65;;;16.10;93.40;;;14.96;74.67;99664.69;10271273;28;98822;-91
2023/07/26 20:53:49;;;;;;;1.63;0.80;;;16.10;93.50;;;14.90;74.67;99668.19;10288390;28;96689;-87
2023/07/26 20:58:53;;;;;;;2.33;0.65;;;16.00;93.50;;;14.89;74.34;99682.59;10287348;28;96660;-88
2023/07/26 21:03:57;;;;;;;1.20;0.70;;;16.00;93.50;;;14.88;73.71;99684.47;10291914;28;98631;-88
2023/07/26 21:09:00;;;;;;;1.73;0.70;;;16.00;93.50;;;14.89;73.47;99690.63;10289698;28;96583;-89